sensor_id;sensor_type;location;lat;lon;timestamp;P1;durP1;ratioP1;P2;durP2;ratioP2
51244;SDS011;37840;47.562;18.738;2023-04-15T00:01:26;3.53;;;2.83;;
51244;SDS011;37840;47.562;18.738;2023-04-15T00:03:53;2.80;;;2.60;;
51244;SDS011;37840;47.562;18.738;2023-04-15T00:06:20;3.42;;;3.12;;
51244;SDS011;37840;47.562;18.738;2023-04-15T00:08:46;3.50;;;3.05;;
51244;SDS011;37840;47.562;18.738;2023-04-15T00:11:13;3.22;;;2.47;;
51244;SDS011;37840;47.562;18.738;2023-04-15T00:13:39;3.33;;;3.03;;
51244;SDS011;37840;47.562;18.738;2023-04-15T00:16:06;5.37;;;2.78;;
51244;SDS011;37840;47.562;18.738;2023-04-15T00:18:33;6.90;;;3.20;;
51244;SDS011;37840;47.562;18.738;2023-04-15T00:21:00;6.82;;;3.58;;
51244;SDS011;37840;47.562;18.738;2023-04-15T00:23:26;3.72;;;2.55;;
51244;SDS011;37840;47.562;18.738;2023-04-15T00:25:52;3.15;;;2.87;;
51244;SDS011;37840;47.562;18.738;2023-04-15T00:28:21;3.70;;;3.37;;
51244;SDS011;37840;47.562;18.738;2023-04-15T00:30:47;3.33;;;3.03;;
51244;SDS011;37840;47.562;18.738;2023-04-15T00:33:13;3.75;;;3.35;;
51244;SDS011;37840;47.562;18.738;2023-04-15T00:35:41;3.92;;;3.53;;
51244;SDS011;37840;47.562;18.738;2023-04-15T00:38:07;4.80;;;3.78;;
51244;SDS011;37840;47.562;18.738;2023-04-15T00:40:33;3.92;;;3.10;;
51244;SDS011;37840;47.562;18.738;2023-04-15T00:42:59;4.18;;;3.67;;
51244;SDS011;37840;47.562;18.738;2023-04-15T00:45:26;3.60;;;3.30;;
51244;SDS011;37840;47.562;18.738;2023-04-15T00:47:53;3.80;;;3.40;;
51244;SDS011;37840;47.562;18.738;2023-04-15T00:50:19;4.65;;;3.40;;
51244;SDS011;37840;47.562;18.738;2023-04-15T00:52:44;3.45;;;3.15;;
51244;SDS011;37840;47.562;18.738;2023-04-15T00:55:10;3.55;;;3.25;;
51244;SDS011;37840;47.562;18.738;2023-04-15T00:57:37;4.05;;;3.65;;
51244;SDS011;37840;47.562;18.738;2023-04-15T01:00:04;26.58;;;5.93;;
51244;SDS011;37840;47.562;18.738;2023-04-15T01:02:33;8.98;;;5.00;;
51244;SDS011;37840;47.562;18.738;2023-04-15T01:05:00;5.30;;;4.80;;
51244;SDS011;37840;47.562;18.738;2023-04-15T01:07:28;4.87;;;4.47;;
51244;SDS011;37840;47.562;18.738;2023-04-15T01:09:54;5.40;;;4.90;;
51244;SDS011;37840;47.562;18.738;2023-04-15T01:12:20;5.37;;;4.60;;
51244;SDS011;37840;47.562;18.738;2023-04-15T01:14:46;5.62;;;5.03;;
51244;SDS011;37840;47.562;18.738;2023-04-15T01:17:12;5.43;;;4.93;;
51244;SDS011;37840;47.562;18.738;2023-04-15T01:19:38;6.20;;;5.20;;
51244;SDS011;37840;47.562;18.738;2023-04-15T01:22:04;5.43;;;4.53;;
51244;SDS011;37840;47.562;18.738;2023-04-15T01:24:30;15.35;;;5.78;;
51244;SDS011;37840;47.562;18.738;2023-04-15T01:27:00;5.72;;;4.65;;
51244;SDS011;37840;47.562;18.738;2023-04-15T01:29:26;5.68;;;5.07;;
51244;SDS011;37840;47.562;18.738;2023-04-15T01:31:53;6.25;;;5.65;;
51244;SDS011;37840;47.562;18.738;2023-04-15T01:34:20;6.50;;;5.90;;
51244;SDS011;37840;47.562;18.738;2023-04-15T01:36:46;5.80;;;5.20;;
51244;SDS011;37840;47.562;18.738;2023-04-15T01:39:12;4.75;;;4.25;;
51244;SDS011;37840;47.562;18.738;2023-04-15T01:41:39;4.97;;;4.47;;
51244;SDS011;37840;47.562;18.738;2023-04-15T01:44:07;5.30;;;4.80;;
51244;SDS011;37840;47.562;18.738;2023-04-15T01:46:33;5.97;;;5.18;;
51244;SDS011;37840;47.562;18.738;2023-04-15T01:48:59;5.10;;;4.60;;
51244;SDS011;37840;47.562;18.738;2023-04-15T01:51:25;5.30;;;4.57;;
51244;SDS011;37840;47.562;18.738;2023-04-15T01:53:52;4.82;;;4.32;;
51244;SDS011;37840;47.562;18.738;2023-04-15T01:56:18;4.20;;;3.80;;
51244;SDS011;37840;47.562;18.738;2023-04-15T01:58:44;4.30;;;3.90;;
51244;SDS011;37840;47.562;18.738;2023-04-15T02:01:10;3.90;;;3.50;;
51244;SDS011;37840;47.562;18.738;2023-04-15T02:03:36;4.00;;;3.60;;
51244;SDS011;37840;47.562;18.738;2023-04-15T02:06:03;4.03;;;3.62;;
51244;SDS011;37840;47.562;18.738;2023-04-15T02:08:30;3.95;;;3.55;;
51244;SDS011;37840;47.562;18.738;2023-04-15T02:10:56;4.00;;;3.58;;
51244;SDS011;37840;47.562;18.738;2023-04-15T02:13:22;5.37;;;3.92;;
51244;SDS011;37840;47.562;18.738;2023-04-15T02:15:48;5.32;;;3.95;;
51244;SDS011;37840;47.562;18.738;2023-04-15T02:18:16;4.50;;;3.85;;
51244;SDS011;37840;47.562;18.738;2023-04-15T02:20:43;39.15;;;6.03;;
51244;SDS011;37840;47.562;18.738;2023-04-15T02:23:10;4.20;;;3.25;;
51244;SDS011;37840;47.562;18.738;2023-04-15T02:25:36;4.00;;;3.60;;
51244;SDS011;37840;47.562;18.738;2023-04-15T02:28:04;3.90;;;3.50;;
51244;SDS011;37840;47.562;18.738;2023-04-15T02:30:31;4.12;;;3.72;;
51244;SDS011;37840;47.562;18.738;2023-04-15T02:32:57;5.25;;;3.75;;
51244;SDS011;37840;47.562;18.738;2023-04-15T02:35:23;5.47;;;3.97;;
51244;SDS011;37840;47.562;18.738;2023-04-15T02:37:50;3.83;;;3.40;;
51244;SDS011;37840;47.562;18.738;2023-04-15T02:40:17;4.20;;;3.80;;
51244;SDS011;37840;47.562;18.738;2023-04-15T02:42:43;4.53;;;4.12;;
51244;SDS011;37840;47.562;18.738;2023-04-15T02:45:09;5.72;;;4.25;;
51244;SDS011;37840;47.562;18.738;2023-04-15T02:47:37;4.80;;;4.40;;
51244;SDS011;37840;47.562;18.738;2023-04-15T02:50:07;6.07;;;5.07;;
51244;SDS011;37840;47.562;18.738;2023-04-15T02:52:34;4.95;;;4.45;;
51244;SDS011;37840;47.562;18.738;2023-04-15T02:55:00;5.00;;;4.50;;
51244;SDS011;37840;47.562;18.738;2023-04-15T02:57:27;5.75;;;4.68;;
51244;SDS011;37840;47.562;18.738;2023-04-15T02:59:54;5.20;;;4.70;;
51244;SDS011;37840;47.562;18.738;2023-04-15T03:02:20;5.45;;;4.87;;
51244;SDS011;37840;47.562;18.738;2023-04-15T03:04:46;5.28;;;4.78;;
51244;SDS011;37840;47.562;18.738;2023-04-15T03:07:12;5.78;;;5.18;;
51244;SDS011;37840;47.562;18.738;2023-04-15T03:09:38;5.93;;;5.32;;
51244;SDS011;37840;47.562;18.738;2023-04-15T03:12:05;5.37;;;4.87;;
51244;SDS011;37840;47.562;18.738;2023-04-15T03:14:32;5.87;;;5.25;;
51244;SDS011;37840;47.562;18.738;2023-04-15T03:16:57;5.93;;;5.32;;
51244;SDS011;37840;47.562;18.738;2023-04-15T03:19:26;7.22;;;5.43;;
51244;SDS011;37840;47.562;18.738;2023-04-15T03:21:52;5.57;;;5.03;;
51244;SDS011;37840;47.562;18.738;2023-04-15T03:24:19;5.68;;;5.03;;
51244;SDS011;37840;47.562;18.738;2023-04-15T03:26:45;5.55;;;5.05;;
51244;SDS011;37840;47.562;18.738;2023-04-15T03:29:11;5.53;;;4.97;;
51244;SDS011;37840;47.562;18.738;2023-04-15T03:31:36;6.43;;;5.82;;
51244;SDS011;37840;47.562;18.738;2023-04-15T03:34:02;5.53;;;5.03;;
51244;SDS011;37840;47.562;18.738;2023-04-15T03:36:29;5.62;;;5.03;;
51244;SDS011;37840;47.562;18.738;2023-04-15T03:38:57;5.70;;;5.05;;
51244;SDS011;37840;47.562;18.738;2023-04-15T03:41:24;5.68;;;5.07;;
51244;SDS011;37840;47.562;18.738;2023-04-15T03:43:50;5.18;;;4.68;;
51244;SDS011;37840;47.562;18.738;2023-04-15T03:46:19;6.55;;;5.28;;
51244;SDS011;37840;47.562;18.738;2023-04-15T03:48:45;5.20;;;4.57;;
51244;SDS011;37840;47.562;18.738;2023-04-15T03:51:12;5.22;;;4.72;;
51244;SDS011;37840;47.562;18.738;2023-04-15T03:53:37;5.00;;;4.50;;
51244;SDS011;37840;47.562;18.738;2023-04-15T03:56:03;5.22;;;4.72;;
51244;SDS011;37840;47.562;18.738;2023-04-15T03:58:30;4.90;;;4.50;;
51244;SDS011;37840;47.562;18.738;2023-04-15T04:00:56;5.25;;;4.70;;
51244;SDS011;37840;47.562;18.738;2023-04-15T04:03:21;5.72;;;5.03;;
51244;SDS011;37840;47.562;18.738;2023-04-15T04:05:48;6.15;;;5.45;;
51244;SDS011;37840;47.562;18.738;2023-04-15T04:08:14;5.60;;;5.10;;
51244;SDS011;37840;47.562;18.738;2023-04-15T04:10:41;5.45;;;4.95;;
51244;SDS011;37840;47.562;18.738;2023-04-15T04:13:07;5.87;;;5.22;;
51244;SDS011;37840;47.562;18.738;2023-04-15T04:15:33;6.37;;;5.78;;
51244;SDS011;37840;47.562;18.738;2023-04-15T04:17:59;7.57;;;6.07;;
51244;SDS011;37840;47.562;18.738;2023-04-15T04:20:25;6.85;;;6.22;;
51244;SDS011;37840;47.562;18.738;2023-04-15T04:22:51;6.93;;;6.30;;
51244;SDS011;37840;47.562;18.738;2023-04-15T04:25:17;6.47;;;5.80;;
51244;SDS011;37840;47.562;18.738;2023-04-15T04:27:42;6.78;;;6.07;;
51244;SDS011;37840;47.562;18.738;2023-04-15T04:30:10;7.62;;;6.28;;
51244;SDS011;37840;47.562;18.738;2023-04-15T04:32:36;6.93;;;6.22;;
51244;SDS011;37840;47.562;18.738;2023-04-15T04:35:02;7.78;;;6.43;;
51244;SDS011;37840;47.562;18.738;2023-04-15T04:37:29;7.30;;;6.50;;
51244;SDS011;37840;47.562;18.738;2023-04-15T04:39:55;7.87;;;7.07;;
51244;SDS011;37840;47.562;18.738;2023-04-15T04:42:21;8.00;;;6.90;;
51244;SDS011;37840;47.562;18.738;2023-04-15T04:44:47;8.18;;;7.12;;
51244;SDS011;37840;47.562;18.738;2023-04-15T04:47:13;8.70;;;7.78;;
51244;SDS011;37840;47.562;18.738;2023-04-15T04:49:39;9.43;;;8.43;;
51244;SDS011;37840;47.562;18.738;2023-04-15T04:52:06;9.60;;;8.60;;
51244;SDS011;37840;47.562;18.738;2023-04-15T04:54:32;9.43;;;7.93;;
51244;SDS011;37840;47.562;18.738;2023-04-15T04:56:58;10.13;;;8.88;;
51244;SDS011;37840;47.562;18.738;2023-04-15T04:59:24;9.82;;;8.52;;
51244;SDS011;37840;47.562;18.738;2023-04-15T05:01:50;10.13;;;8.95;;
51244;SDS011;37840;47.562;18.738;2023-04-15T05:04:17;9.60;;;8.57;;
51244;SDS011;37840;47.562;18.738;2023-04-15T05:06:43;9.90;;;8.00;;
51244;SDS011;37840;47.562;18.738;2023-04-15T05:09:09;12.52;;;9.73;;
51244;SDS011;37840;47.562;18.738;2023-04-15T05:11:35;10.15;;;8.95;;
51244;SDS011;37840;47.562;18.738;2023-04-15T05:14:01;11.25;;;9.20;;
51244;SDS011;37840;47.562;18.738;2023-04-15T05:16:27;10.30;;;8.80;;
51244;SDS011;37840;47.562;18.738;2023-04-15T05:18:53;11.35;;;9.07;;
51244;SDS011;37840;47.562;18.738;2023-04-15T05:21:19;11.75;;;8.80;;
51244;SDS011;37840;47.562;18.738;2023-04-15T05:23:45;10.20;;;7.80;;
51244;SDS011;37840;47.562;18.738;2023-04-15T05:26:11;9.80;;;8.77;;
51244;SDS011;37840;47.562;18.738;2023-04-15T05:28:37;9.80;;;8.18;;
51244;SDS011;37840;47.562;18.738;2023-04-15T05:31:03;11.20;;;8.73;;
51244;SDS011;37840;47.562;18.738;2023-04-15T05:33:29;10.60;;;9.50;;
51244;SDS011;37840;47.562;18.738;2023-04-15T05:35:55;10.38;;;8.98;;
51244;SDS011;37840;47.562;18.738;2023-04-15T05:38:21;10.43;;;8.70;;
51244;SDS011;37840;47.562;18.738;2023-04-15T05:40:47;10.10;;;8.30;;
51244;SDS011;37840;47.562;18.738;2023-04-15T05:43:12;9.52;;;8.60;;
51244;SDS011;37840;47.562;18.738;2023-04-15T05:45:38;11.80;;;9.90;;
51244;SDS011;37840;47.562;18.738;2023-04-15T05:48:04;11.82;;;10.13;;
51244;SDS011;37840;47.562;18.738;2023-04-15T05:50:30;12.07;;;10.77;;
51244;SDS011;37840;47.562;18.738;2023-04-15T05:52:57;12.82;;;10.45;;
51244;SDS011;37840;47.562;18.738;2023-04-15T05:55:23;12.23;;;10.93;;
51244;SDS011;37840;47.562;18.738;2023-04-15T05:57:49;16.60;;;13.48;;
51244;SDS011;37840;47.562;18.738;2023-04-15T06:00:15;13.15;;;11.15;;
51244;SDS011;37840;47.562;18.738;2023-04-15T06:02:41;13.65;;;11.80;;
51244;SDS011;37840;47.562;18.738;2023-04-15T06:05:07;13.45;;;11.98;;
51244;SDS011;37840;47.562;18.738;2023-04-15T06:07:35;14.75;;;11.90;;
51244;SDS011;37840;47.562;18.738;2023-04-15T06:10:02;11.15;;;9.95;;
51244;SDS011;37840;47.562;18.738;2023-04-15T06:12:28;12.57;;;11.27;;
51244;SDS011;37840;47.562;18.738;2023-04-15T06:14:54;9.85;;;8.85;;
51244;SDS011;37840;47.562;18.738;2023-04-15T06:17:20;9.75;;;8.75;;
51244;SDS011;37840;47.562;18.738;2023-04-15T06:19:46;16.85;;;15.07;;
51244;SDS011;37840;47.562;18.738;2023-04-15T06:22:13;16.80;;;14.48;;
51244;SDS011;37840;47.562;18.738;2023-04-15T06:24:39;18.00;;;14.60;;
51244;SDS011;37840;47.562;18.738;2023-04-15T06:27:05;16.65;;;14.10;;
51244;SDS011;37840;47.562;18.738;2023-04-15T06:29:31;19.05;;;15.05;;
51244;SDS011;37840;47.562;18.738;2023-04-15T06:31:57;21.90;;;14.65;;
51244;SDS011;37840;47.562;18.738;2023-04-15T06:34:23;20.00;;;15.60;;
51244;SDS011;37840;47.562;18.738;2023-04-15T06:36:49;18.17;;;14.52;;
51244;SDS011;37840;47.562;18.738;2023-04-15T06:39:15;19.27;;;14.85;;
51244;SDS011;37840;47.562;18.738;2023-04-15T06:41:41;21.52;;;16.27;;
51244;SDS011;37840;47.562;18.738;2023-04-15T06:44:07;21.45;;;16.27;;
51244;SDS011;37840;47.562;18.738;2023-04-15T06:46:33;20.80;;;15.50;;
51244;SDS011;37840;47.562;18.738;2023-04-15T06:48:59;20.88;;;15.65;;
51244;SDS011;37840;47.562;18.738;2023-04-15T06:51:25;22.35;;;16.80;;
51244;SDS011;37840;47.562;18.738;2023-04-15T06:53:51;25.65;;;18.35;;
51244;SDS011;37840;47.562;18.738;2023-04-15T06:56:17;18.50;;;14.93;;
51244;SDS011;37840;47.562;18.738;2023-04-15T06:58:43;24.25;;;17.17;;
51244;SDS011;37840;47.562;18.738;2023-04-15T07:01:09;22.02;;;17.10;;
51244;SDS011;37840;47.562;18.738;2023-04-15T07:03:35;17.73;;;14.70;;
51244;SDS011;37840;47.562;18.738;2023-04-15T07:06:02;16.67;;;13.05;;
51244;SDS011;37840;47.562;18.738;2023-04-15T07:08:31;18.25;;;15.32;;
51244;SDS011;37840;47.562;18.738;2023-04-15T07:10:58;18.58;;;14.82;;
51244;SDS011;37840;47.562;18.738;2023-04-15T07:13:25;13.38;;;11.60;;
51244;SDS011;37840;47.562;18.738;2023-04-15T07:15:52;14.65;;;12.35;;
51244;SDS011;37840;47.562;18.738;2023-04-15T07:18:17;10.48;;;9.25;;
51244;SDS011;37840;47.562;18.738;2023-04-15T07:20:43;9.80;;;8.48;;
51244;SDS011;37840;47.562;18.738;2023-04-15T07:23:09;7.30;;;6.55;;
51244;SDS011;37840;47.562;18.738;2023-04-15T07:25:35;7.28;;;6.05;;
51244;SDS011;37840;47.562;18.738;2023-04-15T07:28:01;7.78;;;6.72;;
51244;SDS011;37840;47.562;18.738;2023-04-15T07:30:27;7.72;;;6.93;;
51244;SDS011;37840;47.562;18.738;2023-04-15T07:32:54;7.35;;;5.30;;
51244;SDS011;37840;47.562;18.738;2023-04-15T07:35:20;5.32;;;4.82;;
51244;SDS011;37840;47.562;18.738;2023-04-15T07:37:47;5.65;;;5.15;;
51244;SDS011;37840;47.562;18.738;2023-04-15T07:40:13;4.95;;;4.45;;
51244;SDS011;37840;47.562;18.738;2023-04-15T07:42:40;4.20;;;3.80;;
51244;SDS011;37840;47.562;18.738;2023-04-15T07:45:06;3.85;;;3.55;;
51244;SDS011;37840;47.562;18.738;2023-04-15T07:47:33;3.58;;;3.28;;
51244;SDS011;37840;47.562;18.738;2023-04-15T07:50:00;3.80;;;3.28;;
51244;SDS011;37840;47.562;18.738;2023-04-15T07:52:26;4.75;;;3.10;;
51244;SDS011;37840;47.562;18.738;2023-04-15T07:54:53;3.50;;;3.20;;
51244;SDS011;37840;47.562;18.738;2023-04-15T07:57:19;4.97;;;3.15;;
51244;SDS011;37840;47.562;18.738;2023-04-15T07:59:44;3.30;;;3.00;;
51244;SDS011;37840;47.562;18.738;2023-04-15T08:02:10;3.87;;;3.30;;
51244;SDS011;37840;47.562;18.738;2023-04-15T08:04:36;3.28;;;2.97;;
51244;SDS011;37840;47.562;18.738;2023-04-15T08:07:02;3.33;;;3.03;;
51244;SDS011;37840;47.562;18.738;2023-04-15T08:09:29;3.65;;;2.85;;
51244;SDS011;37840;47.562;18.738;2023-04-15T08:11:55;3.00;;;2.58;;
51244;SDS011;37840;47.562;18.738;2023-04-15T08:14:22;2.90;;;2.60;;
51244;SDS011;37840;47.562;18.738;2023-04-15T08:16:49;2.58;;;2.37;;
51244;SDS011;37840;47.562;18.738;2023-04-15T08:19:15;2.72;;;2.53;;
51244;SDS011;37840;47.562;18.738;2023-04-15T08:21:41;4.57;;;2.85;;
51244;SDS011;37840;47.562;18.738;2023-04-15T08:24:07;3.90;;;2.87;;
51244;SDS011;37840;47.562;18.738;2023-04-15T08:26:33;3.15;;;2.85;;
51244;SDS011;37840;47.562;18.738;2023-04-15T08:29:00;3.30;;;3.00;;
51244;SDS011;37840;47.562;18.738;2023-04-15T08:31:27;3.60;;;3.30;;
51244;SDS011;37840;47.562;18.738;2023-04-15T08:33:55;3.53;;;3.22;;
51244;SDS011;37840;47.562;18.738;2023-04-15T08:36:22;3.90;;;3.50;;
51244;SDS011;37840;47.562;18.738;2023-04-15T08:38:48;3.50;;;3.20;;
51244;SDS011;37840;47.562;18.738;2023-04-15T08:41:23;3.30;;;3.00;;
51244;SDS011;37840;47.562;18.738;2023-04-15T08:43:51;3.40;;;3.10;;
51244;SDS011;37840;47.562;18.738;2023-04-15T08:46:19;2.20;;;2.00;;
51244;SDS011;37840;47.562;18.738;2023-04-15T08:48:46;1.90;;;1.80;;
51244;SDS011;37840;47.562;18.738;2023-04-15T08:51:13;2.30;;;2.00;;
51244;SDS011;37840;47.562;18.738;2023-04-15T08:53:42;2.20;;;2.00;;
51244;SDS011;37840;47.562;18.738;2023-04-15T08:56:09;3.00;;;2.10;;
51244;SDS011;37840;47.562;18.738;2023-04-15T08:58:37;2.53;;;2.08;;
51244;SDS011;37840;47.562;18.738;2023-04-15T09:01:03;2.12;;;1.92;;
51244;SDS011;37840;47.562;18.738;2023-04-15T09:03:29;2.05;;;1.95;;
51244;SDS011;37840;47.562;18.738;2023-04-15T09:05:56;2.83;;;2.00;;
51244;SDS011;37840;47.562;18.738;2023-04-15T09:08:23;2.10;;;1.90;;
51244;SDS011;37840;47.562;18.738;2023-04-15T09:10:49;1.83;;;1.73;;
51244;SDS011;37840;47.562;18.738;2023-04-15T09:13:15;1.90;;;1.60;;
51244;SDS011;37840;47.562;18.738;2023-04-15T09:15:41;2.83;;;2.20;;
51244;SDS011;37840;47.562;18.738;2023-04-15T09:18:08;2.05;;;1.92;;
51244;SDS011;37840;47.562;18.738;2023-04-15T09:20:40;2.75;;;1.92;;
51244;SDS011;37840;47.562;18.738;2023-04-15T09:23:13;2.65;;;2.42;;
51244;SDS011;37840;47.562;18.738;2023-04-15T09:25:41;2.67;;;2.47;;
51244;SDS011;37840;47.562;18.738;2023-04-15T09:28:07;2.53;;;2.33;;
51244;SDS011;37840;47.562;18.738;2023-04-15T09:30:33;2.25;;;2.05;;
51244;SDS011;37840;47.562;18.738;2023-04-15T09:33:00;2.87;;;2.42;;
51244;SDS011;37840;47.562;18.738;2023-04-15T09:35:27;2.92;;;2.72;;
51244;SDS011;37840;47.562;18.738;2023-04-15T09:38:01;2.20;;;2.05;;
51244;SDS011;37840;47.562;18.738;2023-04-15T09:40:35;1.73;;;1.62;;
51244;SDS011;37840;47.562;18.738;2023-04-15T09:43:05;2.30;;;2.10;;
51244;SDS011;37840;47.562;18.738;2023-04-15T09:45:33;2.00;;;1.90;;
51244;SDS011;37840;47.562;18.738;2023-04-15T09:50:47;2.50;;;2.05;;
51244;SDS011;37840;47.562;18.738;2023-04-15T09:53:15;2.42;;;2.22;;
51244;SDS011;37840;47.562;18.738;2023-04-15T09:55:53;4.78;;;2.40;;
51244;SDS011;37840;47.562;18.738;2023-04-15T09:58:24;2.25;;;2.00;;
51244;SDS011;37840;47.562;18.738;2023-04-15T10:00:52;1.73;;;1.62;;
51244;SDS011;37840;47.562;18.738;2023-04-15T10:03:24;1.30;;;1.20;;
51244;SDS011;37840;47.562;18.738;2023-04-15T10:05:52;2.00;;;1.80;;
51244;SDS011;37840;47.562;18.738;2023-04-15T10:08:21;1.60;;;1.48;;
51244;SDS011;37840;47.562;18.738;2023-04-15T10:10:49;2.95;;;1.23;;
51244;SDS011;37840;47.562;18.738;2023-04-15T10:13:17;1.80;;;1.50;;
51244;SDS011;37840;47.562;18.738;2023-04-15T10:15:48;1.50;;;1.40;;
51244;SDS011;37840;47.562;18.738;2023-04-15T10:18:17;1.20;;;1.10;;
51244;SDS011;37840;47.562;18.738;2023-04-15T10:20:46;1.75;;;1.50;;
51244;SDS011;37840;47.562;18.738;2023-04-15T10:23:12;1.95;;;1.15;;
51244;SDS011;37840;47.562;18.738;2023-04-15T10:25:42;1.20;;;1.10;;
51244;SDS011;37840;47.562;18.738;2023-04-15T10:28:08;1.70;;;1.40;;
51244;SDS011;37840;47.562;18.738;2023-04-15T10:30:35;1.40;;;1.30;;
51244;SDS011;37840;47.562;18.738;2023-04-15T10:33:02;1.50;;;1.40;;
51244;SDS011;37840;47.562;18.738;2023-04-15T10:35:29;0.82;;;0.82;;
51244;SDS011;37840;47.562;18.738;2023-04-15T10:37:56;0.82;;;0.80;;
51244;SDS011;37840;47.562;18.738;2023-04-15T10:40:29;0.90;;;0.90;;
51244;SDS011;37840;47.562;18.738;2023-04-15T10:42:56;1.10;;;1.00;;
51244;SDS011;37840;47.562;18.738;2023-04-15T10:45:27;1.53;;;0.90;;
51244;SDS011;37840;47.562;18.738;2023-04-15T10:47:56;1.37;;;1.20;;
51244;SDS011;37840;47.562;18.738;2023-04-15T10:50:26;0.98;;;0.90;;
51244;SDS011;37840;47.562;18.738;2023-04-15T10:52:54;1.20;;;1.10;;
51244;SDS011;37840;47.562;18.738;2023-04-15T10:55:25;1.50;;;1.40;;
51244;SDS011;37840;47.562;18.738;2023-04-15T10:57:59;2.58;;;1.80;;
51244;SDS011;37840;47.562;18.738;2023-04-15T11:00:29;1.60;;;1.50;;
51244;SDS011;37840;47.562;18.738;2023-04-15T11:03:06;1.50;;;1.40;;
51244;SDS011;37840;47.562;18.738;2023-04-15T11:08:14;1.40;;;1.30;;
51244;SDS011;37840;47.562;18.738;2023-04-15T11:18:12;1.00;;;0.90;;
51244;SDS011;37840;47.562;18.738;2023-04-15T11:20:43;1.52;;;1.42;;
51244;SDS011;37840;47.562;18.738;2023-04-15T11:23:30;2.72;;;1.45;;
51244;SDS011;37840;47.562;18.738;2023-04-15T11:25:59;1.25;;;1.15;;
51244;SDS011;37840;47.562;18.738;2023-04-15T11:28:27;1.30;;;1.20;;
51244;SDS011;37840;47.562;18.738;2023-04-15T11:30:55;1.10;;;1.00;;
51244;SDS011;37840;47.562;18.738;2023-04-15T11:33:21;1.20;;;1.10;;
51244;SDS011;37840;47.562;18.738;2023-04-15T11:35:48;1.95;;;1.20;;
51244;SDS011;37840;47.562;18.738;2023-04-15T11:38:15;1.65;;;1.45;;
51244;SDS011;37840;47.562;18.738;2023-04-15T11:40:42;1.30;;;1.20;;
51244;SDS011;37840;47.562;18.738;2023-04-15T11:43:09;1.77;;;1.33;;
51244;SDS011;37840;47.562;18.738;2023-04-15T11:45:36;1.50;;;1.40;;
51244;SDS011;37840;47.562;18.738;2023-04-15T11:48:07;1.37;;;1.27;;
51244;SDS011;37840;47.562;18.738;2023-04-15T11:50:34;1.10;;;1.00;;
51244;SDS011;37840;47.562;18.738;2023-04-15T11:53:02;2.03;;;1.10;;
51244;SDS011;37840;47.562;18.738;2023-04-15T11:55:29;1.30;;;1.20;;
51244;SDS011;37840;47.562;18.738;2023-04-15T11:58:15;1.50;;;1.40;;
51244;SDS011;37840;47.562;18.738;2023-04-15T12:03:20;1.42;;;1.33;;
51244;SDS011;37840;47.562;18.738;2023-04-15T12:06:03;7.62;;;2.15;;
51244;SDS011;37840;47.562;18.738;2023-04-15T12:16:45;1.73;;;1.62;;
51244;SDS011;37840;47.562;18.738;2023-04-15T12:19:14;1.20;;;1.10;;
51244;SDS011;37840;47.562;18.738;2023-04-15T12:21:47;1.55;;;1.27;;
51244;SDS011;37840;47.562;18.738;2023-04-15T12:24:14;1.60;;;1.50;;
51244;SDS011;37840;47.562;18.738;2023-04-15T12:26:44;1.60;;;1.50;;
51244;SDS011;37840;47.562;18.738;2023-04-15T12:29:12;2.92;;;1.30;;
51244;SDS011;37840;47.562;18.738;2023-04-15T12:31:56;1.60;;;1.50;;
51244;SDS011;37840;47.562;18.738;2023-04-15T12:34:29;1.60;;;1.50;;
51244;SDS011;37840;47.562;18.738;2023-04-15T12:36:56;1.80;;;1.70;;
51244;SDS011;37840;47.562;18.738;2023-04-15T12:39:24;1.60;;;1.50;;
51244;SDS011;37840;47.562;18.738;2023-04-15T12:41:51;1.50;;;1.25;;
51244;SDS011;37840;47.562;18.738;2023-04-15T12:44:17;1.45;;;1.35;;
51244;SDS011;37840;47.562;18.738;2023-04-15T12:46:44;1.70;;;1.60;;
51244;SDS011;37840;47.562;18.738;2023-04-15T12:49:10;1.42;;;1.30;;
51244;SDS011;37840;47.562;18.738;2023-04-15T12:51:36;1.52;;;1.42;;
51244;SDS011;37840;47.562;18.738;2023-04-15T12:54:02;2.75;;;1.50;;
51244;SDS011;37840;47.562;18.738;2023-04-15T12:56:29;1.50;;;1.40;;
51244;SDS011;37840;47.562;18.738;2023-04-15T12:58:55;1.85;;;1.75;;
51244;SDS011;37840;47.562;18.738;2023-04-15T13:01:20;2.15;;;1.95;;
51244;SDS011;37840;47.562;18.738;2023-04-15T13:03:46;1.58;;;1.48;;
51244;SDS011;37840;47.562;18.738;2023-04-15T13:06:12;2.30;;;2.10;;
51244;SDS011;37840;47.562;18.738;2023-04-15T13:08:38;2.42;;;2.22;;
51244;SDS011;37840;47.562;18.738;2023-04-15T13:11:04;2.20;;;2.00;;
51244;SDS011;37840;47.562;18.738;2023-04-15T13:13:30;2.97;;;2.10;;
51244;SDS011;37840;47.562;18.738;2023-04-15T13:15:57;2.10;;;1.80;;
51244;SDS011;37840;47.562;18.738;2023-04-15T13:18:23;2.60;;;2.40;;
51244;SDS011;37840;47.562;18.738;2023-04-15T13:20:49;1.58;;;1.48;;
51244;SDS011;37840;47.562;18.738;2023-04-15T13:23:15;1.55;;;1.45;;
51244;SDS011;37840;47.562;18.738;2023-04-15T13:25:42;1.58;;;1.48;;
51244;SDS011;37840;47.562;18.738;2023-04-15T13:28:09;2.28;;;2.08;;
51244;SDS011;37840;47.562;18.738;2023-04-15T13:30:37;2.08;;;1.87;;
51244;SDS011;37840;47.562;18.738;2023-04-15T13:33:04;3.60;;;2.22;;
51244;SDS011;37840;47.562;18.738;2023-04-15T13:35:30;2.45;;;2.20;;
51244;SDS011;37840;47.562;18.738;2023-04-15T13:37:57;2.37;;;2.17;;
51244;SDS011;37840;47.562;18.738;2023-04-15T13:40:23;2.22;;;1.92;;
51244;SDS011;37840;47.562;18.738;2023-04-15T13:42:49;2.15;;;2.00;;
51244;SDS011;37840;47.562;18.738;2023-04-15T13:45:16;1.98;;;1.87;;
51244;SDS011;37840;47.562;18.738;2023-04-15T13:47:42;2.22;;;2.03;;
51244;SDS011;37840;47.562;18.738;2023-04-15T13:50:08;1.90;;;1.80;;
51244;SDS011;37840;47.562;18.738;2023-04-15T13:52:34;1.30;;;1.20;;
51244;SDS011;37840;47.562;18.738;2023-04-15T13:55:01;1.92;;;1.73;;
51244;SDS011;37840;47.562;18.738;2023-04-15T13:57:28;1.85;;;1.60;;
51244;SDS011;37840;47.562;18.738;2023-04-15T13:59:54;1.40;;;1.30;;
51244;SDS011;37840;47.562;18.738;2023-04-15T14:02:20;2.03;;;1.73;;
51244;SDS011;37840;47.562;18.738;2023-04-15T14:04:47;1.90;;;1.60;;
51244;SDS011;37840;47.562;18.738;2023-04-15T14:07:13;1.73;;;1.62;;
51244;SDS011;37840;47.562;18.738;2023-04-15T14:09:39;1.60;;;1.50;;
51244;SDS011;37840;47.562;18.738;2023-04-15T14:12:05;1.52;;;1.42;;
51244;SDS011;37840;47.562;18.738;2023-04-15T14:14:31;2.33;;;1.83;;
51244;SDS011;37840;47.562;18.738;2023-04-15T14:16:57;2.03;;;1.60;;
51244;SDS011;37840;47.562;18.738;2023-04-15T14:19:23;1.80;;;1.70;;
51244;SDS011;37840;47.562;18.738;2023-04-15T14:21:49;2.17;;;1.98;;
51244;SDS011;37840;47.562;18.738;2023-04-15T14:24:15;1.98;;;1.80;;
51244;SDS011;37840;47.562;18.738;2023-04-15T14:26:41;1.85;;;1.70;;
51244;SDS011;37840;47.562;18.738;2023-04-15T14:29:09;2.33;;;1.70;;
51244;SDS011;37840;47.562;18.738;2023-04-15T14:31:36;2.22;;;1.60;;
51244;SDS011;37840;47.562;18.738;2023-04-15T14:34:02;1.45;;;1.33;;
51244;SDS011;37840;47.562;18.738;2023-04-15T14:36:28;1.25;;;1.15;;
51244;SDS011;37840;47.562;18.738;2023-04-15T14:38:54;1.50;;;1.40;;
51244;SDS011;37840;47.562;18.738;2023-04-15T14:41:20;3.00;;;1.35;;
51244;SDS011;37840;47.562;18.738;2023-04-15T14:43:46;3.05;;;2.70;;
51244;SDS011;37840;47.562;18.738;2023-04-15T14:46:12;2.50;;;2.10;;
51244;SDS011;37840;47.562;18.738;2023-04-15T14:48:39;14.13;;;11.02;;
51244;SDS011;37840;47.562;18.738;2023-04-15T14:51:05;5.57;;;3.92;;
51244;SDS011;37840;47.562;18.738;2023-04-15T14:53:31;7.62;;;6.87;;